Time;durP1;ratioP1;P1;durP2;ratioP2;P2;SDS_P1;SDS_P2;PMS_P1;PMS_P2;Temp;Humidity;BMP_temperature;BMP_pressure;BME280_temperature;BME280_humidity;BME280_pressure;Samples;Min_cycle;Max_cycle;Signal;HPM_P1;HPM_P2
2023/12/23 00:01:51;;;;;;;5.55;1.80;;;;;;;6.36;100.00;100956.34;5037623;28;20032;-80
2023/12/23 00:04:16;;;;;;;6.70;2.17;;;;;;;6.35;100.00;100952.06;5030561;28;20029;-80
2023/12/23 00:06:42;;;;;;;5.93;2.05;;;;;;;6.38;100.00;100959.72;5031583;28;20489;-80
2023/12/23 00:09:07;;;;;;;6.25;1.98;;;;;;;6.39;100.00;100958.78;5045690;28;20517;-80
2023/12/23 00:11:32;;;;;;;8.85;2.13;;;;;;;6.40;100.00;100960.47;5049404;28;20074;-80
2023/12/23 00:13:58;;;;;;;7.70;2.05;;;;;;;6.40;100.00;100957.88;5049932;28;20028;-80
2023/12/23 00:16:24;;;;;;;11.15;2.35;;;;;;;6.39;100.00;100969.25;5050610;28;20029;-80
2023/12/23 00:18:49;;;;;;;9.13;2.47;;;;;;;6.41;100.00;100963.03;5046556;28;20016;-80
2023/12/23 00:21:15;;;;;;;10.77;2.33;;;;;;;6.43;100.00;100947.28;5044867;28;20043;-80
2023/12/23 00:23:41;;;;;;;8.02;2.10;;;;;;;6.42;100.00;100945.59;5049109;28;20109;-80
2023/12/23 00:26:06;;;;;;;9.55;2.55;;;;;;;6.42;100.00;100950.81;5041550;28;20462;-80
2023/12/23 00:28:32;;;;;;;10.82;2.50;;;;;;;6.44;100.00;100944.56;5048307;28;20442;-81
2023/12/23 00:31:00;;;;;;;9.60;2.50;;;;;;;6.44;100.00;100943.72;5044273;28;20021;-81
2023/12/23 00:33:25;;;;;;;8.48;2.45;;;;;;;6.44;100.00;100936.72;5038879;28;20053;-81
2023/12/23 00:35:51;;;;;;;11.23;3.00;;;;;;;6.49;100.00;100934.72;5042274;28;20036;-81
2023/12/23 00:38:16;;;;;;;14.27;3.28;;;;;;;6.53;100.00;100932.75;5045463;28;20090;-80
2023/12/23 00:40:41;;;;;;;11.18;3.08;;;;;;;6.59;100.00;100940.25;5043801;28;20029;-81
2023/12/23 00:43:07;;;;;;;18.77;3.90;;;;;;;6.69;100.00;100932.72;5029824;28;20120;-81
2023/12/23 00:45:32;;;;;;;22.77;4.07;;;;;;;6.83;100.00;100927.59;5040612;28;20029;-81
2023/12/23 00:48:00;;;;;;;17.80;3.67;;;;;;;6.99;100.00;100923.16;5040685;28;20021;-81
2023/12/23 00:50:25;;;;;;;20.90;3.95;;;;;;;7.12;100.00;100912.81;5031692;28;20103;-81
2023/12/23 00:52:50;;;;;;;21.55;4.63;;;;;;;7.20;100.00;100927.16;5038890;28;20482;-81
2023/12/23 00:55:17;;;;;;;19.13;4.40;;;;;;;7.27;100.00;100905.84;5038493;28;20112;-81
2023/12/23 00:57:42;;;;;;;18.33;4.20;;;;;;;7.31;100.00;100902.94;5032153;28;20029;-81
2023/12/23 01:00:08;;;;;;;19.00;3.90;;;;;;;7.38;100.00;100913.91;5032274;28;20029;-81
2023/12/23 01:02:33;;;;;;;19.23;4.00;;;;;;;7.41;100.00;100898.84;5048624;28;20028;-81
2023/12/23 01:04:59;;;;;;;19.33;3.83;;;;;;;7.47;100.00;100901.09;5047032;28;20473;-82
2023/12/23 01:07:24;;;;;;;19.23;4.15;;;;;;;7.51;100.00;100905.19;5042309;28;20039;-81
2023/12/23 01:09:50;;;;;;;17.08;3.67;;;;;;;7.54;100.00;100905.00;5034672;28;20021;-81
2023/12/23 01:12:18;;;;;;;16.45;3.08;;;;;;;7.56;100.00;100910.16;5031210;28;20025;-80
2023/12/23 01:14:43;;;;;;;16.52;3.70;;;;;;;7.61;100.00;100895.03;5048956;28;20392;-81
2023/12/23 01:17:09;;;;;;;15.43;3.60;;;;;;;7.62;100.00;100891.50;5048808;28;20020;-81
2023/12/23 01:19:34;;;;;;;15.50;3.17;;;;;;;7.65;100.00;100896.53;5047856;28;20561;-81
2023/12/23 01:21:59;;;;;;;14.52;3.22;;;;;;;7.68;100.00;100869.31;5048602;28;20043;-80
2023/12/23 01:24:25;;;;;;;15.82;3.35;;;;;;;7.74;100.00;100874.19;5041363;28;20048;-81
2023/12/23 01:26:51;;;;;;;14.48;3.38;;;;;;;7.79;100.00;100885.19;5040949;28;20049;-81
2023/12/23 01:29:16;;;;;;;13.07;3.03;;;;;;;7.81;100.00;100883.31;5046016;28;20037;-81
2023/12/23 01:31:41;;;;;;;18.73;3.40;;;;;;;7.82;100.00;100882.38;5047876;28;20033;-81
2023/12/23 01:34:07;;;;;;;15.15;3.20;;;;;;;7.83;100.00;100884.06;5042889;28;20041;-81
2023/12/23 01:36:32;;;;;;;14.32;3.28;;;;;;;7.85;100.00;100888.28;5027357;28;20029;-80
2023/12/23 01:38:58;;;;;;;12.32;2.60;;;;;;;7.89;100.00;100875.84;5035714;28;20373;-81
2023/12/23 01:41:24;;;;;;;18.75;3.75;;;;;;;7.92;100.00;100872.19;5045746;28;20560;-81
2023/12/23 01:43:49;;;;;;;12.50;3.03;;;;;;;7.96;100.00;100864.03;5043372;28;20017;-81
2023/12/23 01:46:14;;;;;;;16.27;3.47;;;;;;;7.99;100.00;100873.47;5043530;28;20116;-80
2023/12/23 01:48:44;;;;;;;10.13;2.50;;;;;;;8.02;100.00;100873.31;5044422;28;20035;-80
2023/12/23 01:51:11;;;;;;;13.63;3.03;;;;;;;8.04;100.00;100863.56;5039986;28;20392;-81
2023/12/23 01:53:37;;;;;;;14.73;3.30;;;;;;;8.03;100.00;100869.75;5044877;28;20024;-81
2023/12/23 01:56:03;;;;;;;12.63;2.80;;;;;;;8.05;100.00;100871.34;5040674;28;20021;-80
2023/12/23 01:58:28;;;;;;;12.70;2.85;;;;;;;8.08;100.00;100878.16;5030901;28;20029;-81
2023/12/23 02:00:54;;;;;;;10.98;2.90;;;;;;;8.09;100.00;100878.06;5038515;28;20444;-81
2023/12/23 02:03:20;;;;;;;14.25;3.25;;;;;;;8.10;100.00;100871.88;5036113;28;20042;-80
2023/12/23 02:05:45;;;;;;;10.90;3.05;;;;;;;8.10;100.00;100861.41;5044369;28;20036;-79
2023/12/23 02:08:12;;;;;;;13.15;3.03;;;;;;;8.09;100.00;100864.13;5047316;28;20021;-79
2023/12/23 02:10:38;;;;;;;13.70;3.40;;;;;;;8.08;100.00;100867.69;5042780;28;20025;-79
2023/12/23 02:13:16;;;;;;;13.43;3.10;;;;;;;8.07;100.00;100856.34;5030702;28;20029;-80
2023/12/23 02:15:45;;;;;;;12.23;3.05;;;;;;;8.05;100.00;100858.22;5029189;28;20026;-79
2023/12/23 02:18:11;;;;;;;14.35;3.13;;;;;;;8.04;100.00;100840.00;5043236;28;20029;-80
2023/12/23 02:20:37;;;;;;;15.85;3.30;;;;;;;8.03;100.00;100844.38;5046662;28;20103;-80
2023/12/23 02:23:02;;;;;;;16.27;3.38;;;;;;;8.04;100.00;100860.94;5045951;28;20086;-80
2023/12/23 02:25:28;;;;;;;13.73;3.30;;;;;;;8.02;100.00;100858.44;5031459;28;20494;-80
2023/12/23 02:27:55;;;;;;;14.73;3.20;;;;;;;8.03;100.00;100849.63;5027649;28;20037;-80
2023/12/23 02:30:23;;;;;;;15.07;3.25;;;;;;;8.03;100.00;100854.88;5027496;28;20030;-81
2023/12/23 02:32:49;;;;;;;15.68;3.75;;;;;;;8.03;100.00;100860.09;5029100;28;20028;-80
2023/12/23 02:35:21;;;;;;;14.05;3.30;;;;;;;8.05;100.00;100850.38;5028524;28;20533;-80
2023/12/23 02:37:46;;;;;;;15.35;3.38;;;;;;;8.05;100.00;100858.22;5042088;28;20393;-81
2023/12/23 02:40:12;;;;;;;14.00;3.50;;;;;;;8.06;100.00;100845.97;5043402;28;20029;-81
2023/12/23 02:42:37;;;;;;;15.48;3.85;;;;;;;8.06;100.00;100844.19;5028777;28;20025;-81
2023/12/23 02:45:03;;;;;;;16.75;3.65;;;;;;;8.06;100.00;100840.72;5028246;28;20096;-80
2023/12/23 02:47:28;;;;;;;13.20;3.30;;;;;;;8.07;100.00;100840.63;5028877;28;20025;-80
2023/12/23 02:49:54;;;;;;;15.23;3.58;;;;;;;8.09;100.00;100817.78;5032981;28;20499;-80
2023/12/23 02:52:21;;;;;;;13.23;3.78;;;;;;;8.10;100.00;100816.84;5035252;28;20130;-80
2023/12/23 02:54:46;;;;;;;12.75;3.05;;;;;;;8.14;100.00;100814.88;5040335;28;20029;-80
2023/12/23 02:57:12;;;;;;;13.65;3.10;;;;;;;8.15;100.00;100838.34;5039765;28;20029;-81
2023/12/23 02:59:37;;;;;;;15.75;3.15;;;;;;;8.15;100.00;100822.63;5039824;28;20043;-81
2023/12/23 03:02:03;;;;;;;16.08;3.42;;;;;;;8.16;100.00;100816.44;5028697;28;20087;-80
2023/12/23 03:04:29;;;;;;;18.98;3.38;;;;;;;8.17;100.00;100809.44;5025745;28;20108;-80
2023/12/23 03:06:54;;;;;;;11.80;3.00;;;;;;;8.18;100.00;100821.59;5029234;28;20033;-80
2023/12/23 03:09:19;;;;;;;14.95;3.10;;;;;;;8.19;100.00;100807.56;5044751;28;20021;-81
2023/12/23 03:11:45;;;;;;;12.68;3.30;;;;;;;8.22;100.00;100796.03;5042539;28;20029;-81
2023/12/23 03:14:10;;;;;;;10.77;3.00;;;;;;;8.24;100.00;100804.63;5043951;28;20041;-81
2023/12/23 03:16:35;;;;;;;16.55;3.35;;;;;;;8.25;100.00;100798.44;5044398;28;20020;-81
2023/12/23 03:19:04;;;;;;;15.88;3.58;;;;;;;8.28;100.00;100806.09;5046587;28;20028;-81
2023/12/23 03:21:30;;;;;;;11.05;2.83;;;;;;;8.28;100.00;100811.34;5029769;28;20025;-81
2023/12/23 03:23:55;;;;;;;14.40;3.20;;;;;;;8.29;100.00;100808.63;5033395;28;20025;-82
2023/12/23 03:26:21;;;;;;;14.60;3.22;;;;;;;8.29;100.00;100797.31;5028823;28;20026;-82
2023/12/23 03:28:46;;;;;;;12.18;2.90;;;;;;;8.27;100.00;100810.50;5032598;28;20036;-82
2023/12/23 03:31:11;;;;;;;14.00;3.20;;;;;;;8.27;100.00;100815.75;5035177;28;20055;-82
2023/12/23 03:33:37;;;;;;;16.08;3.40;;;;;;;8.27;100.00;100812.28;5041313;28;20053;-82
2023/12/23 03:36:03;;;;;;;15.40;3.50;;;;;;;8.28;100.00;100804.31;5047512;28;20107;-81
2023/12/23 03:38:28;;;;;;;14.57;3.80;;;;;;;8.29;100.00;100792.91;5043123;28;20029;-82
2023/12/23 03:40:53;;;;;;;11.13;3.10;;;;;;;8.31;100.00;100805.91;5033254;28;20108;-81
2023/12/23 03:43:19;;;;;;;14.13;3.22;;;;;;;8.28;100.00;100806.09;5036112;28;20510;-82
2023/12/23 03:45:46;;;;;;;13.30;3.38;;;;;;;8.29;100.00;100792.91;5041303;28;20069;-81
2023/12/23 03:48:12;;;;;;;15.20;3.55;;;;;;;8.30;100.00;100799.81;5039739;28;20056;-82
2023/12/23 03:50:37;;;;;;;19.75;3.88;;;;;;;8.31;100.00;100801.50;5037436;28;20112;-82
2023/12/23 03:53:03;;;;;;;16.33;3.38;;;;;;;8.31;100.00;100791.00;5057926;28;20055;-82
2023/12/23 03:55:34;;;;;;;13.05;3.17;;;;;;;8.30;100.00;100794.56;5035828;28;20465;-81
2023/12/23 03:57:59;;;;;;;20.83;4.22;;;;;;;8.31;100.00;100800.66;5047101;28;20039;-81
2023/12/23 04:00:26;;;;;;;14.63;3.35;;;;;;;8.32;100.00;100797.09;5037368;28;20120;-82
2023/12/23 04:02:52;;;;;;;13.00;3.50;;;;;;;8.31;100.00;100801.50;5046029;28;20025;-82
2023/12/23 04:05:17;;;;;;;12.50;3.28;;;;;;;8.32;100.00;100791.84;5048305;28;20040;-81
2023/12/23 04:07:43;;;;;;;11.10;3.50;;;;;;;8.32;100.00;100792.69;5049560;28;20020;-82
2023/12/23 04:10:08;;;;;;;13.05;3.55;;;;;;;8.30;100.00;100789.34;5049469;28;20032;-82
2023/12/23 04:12:33;;;;;;;12.43;3.55;;;;;;;8.30;100.00;100794.56;5042841;28;20022;-82
2023/12/23 04:14:59;;;;;;;15.65;3.95;;;;;;;8.29;100.00;100781.56;5039815;28;20036;-82
2023/12/23 04:17:24;;;;;;;12.50;3.33;;;;;;;8.32;100.00;100791.84;5042971;28;20045;-82
2023/12/23 04:19:50;;;;;;;13.02;3.47;;;;;;;8.31;100.00;100780.53;5039899;28;20367;-81
2023/12/23 04:22:18;;;;;;;13.93;3.33;;;;;;;8.31;100.00;100774.44;5033048;28;20029;-81
2023/12/23 04:24:44;;;;;;;15.40;3.35;;;;;;;8.31;100.00;100782.31;5038131;28;20116;-82
2023/12/23 04:27:09;;;;;;;13.95;3.30;;;;;;;8.30;100.00;100772.78;5048091;28;20120;-82
2023/12/23 04:29:34;;;;;;;13.65;3.25;;;;;;;8.31;100.00;100767.41;5047247;28;20035;-82
2023/12/23 04:32:00;;;;;;;13.88;2.95;;;;;;;8.31;100.00;100756.09;5036585;28;20021;-82
2023/12/23 04:34:25;;;;;;;14.27;3.00;;;;;;;8.33;100.00;100756.84;5036693;28;20513;-82
2023/12/23 04:36:50;;;;;;;13.63;3.40;;;;;;;8.32;100.00;100760.41;5036768;28;20036;-81
2023/12/23 04:39:16;;;;;;;11.43;2.92;;;;;;;8.32;100.00;100749.91;5048074;28;20093;-81
2023/12/23 04:41:48;;;;;;;14.60;2.92;;;;;;;8.32;100.00;100752.53;5038562;28;20030;-81
2023/12/23 04:44:14;;;;;;;13.82;3.42;;;;;;;8.32;100.00;100744.66;5030154;28;20063;-81
2023/12/23 04:46:41;;;;;;;12.05;2.95;;;;;;;8.33;100.00;100752.47;5030542;28;20394;-81
2023/12/23 04:49:07;;;;;;;12.70;3.05;;;;;;;8.32;100.00;100739.44;5029336;28;20025;-81
2023/12/23 04:51:32;;;;;;;14.27;3.08;;;;;;;8.30;100.00;100741.31;5039481;28;20433;-81
2023/12/23 04:53:58;;;;;;;11.10;3.13;;;;;;;8.33;100.00;100754.22;5043390;28;20051;-81
2023/12/23 04:56:23;;;;;;;10.82;2.90;;;;;;;8.31;100.00;100740.38;5050548;28;20021;-81
2023/12/23 04:58:49;;;;;;;13.10;3.10;;;;;;;8.32;100.00;100734.19;5048265;28;20056;-81
2023/12/23 05:01:14;;;;;;;14.02;3.22;;;;;;;8.32;100.00;100744.66;5049001;28;20025;-82
2023/12/23 05:03:40;;;;;;;12.57;3.42;;;;;;;8.34;100.00;100737.56;5050189;28;20075;-80
2023/12/23 05:06:06;;;;;;;11.77;2.97;;;;;;;8.32;100.00;100726.31;5048165;28;20063;-81
2023/12/23 05:08:32;;;;;;;14.43;2.88;;;;;;;8.32;100.00;100744.66;5038896;28;20104;-81
2023/12/23 05:11:02;;;;;;;10.85;3.15;;;;;;;8.31;100.00;100741.22;5043782;28;20024;-81
2023/12/23 05:13:30;;;;;;;10.07;2.70;;;;;;;8.33;100.00;100730.63;5033558;28;20026;-80
2023/12/23 05:15:55;;;;;;;11.25;3.00;;;;;;;8.32;100.00;100737.66;5027895;28;20032;-80
2023/12/23 05:18:21;;;;;;;12.93;2.75;;;;;;;8.32;100.00;100739.44;5040101;28;20068;-81
2023/12/23 05:20:46;;;;;;;13.35;3.08;;;;;;;8.30;100.00;100729.03;5029153;28;20018;-79
2023/12/23 05:23:11;;;;;;;11.00;3.15;;;;;;;8.32;100.00;100726.31;5039379;28;20040;-80
2023/12/23 05:25:37;;;;;;;10.88;3.03;;;;;;;8.32;100.00;100729.78;5047639;28;20024;-80
2023/12/23 05:28:03;;;;;;;9.15;2.63;;;;;;;8.30;100.00;100731.66;5038848;28;20025;-81
2023/12/23 05:30:28;;;;;;;13.00;3.20;;;;;;;8.30;100.00;100720.34;5033037;28;20171;-81
2023/12/23 05:32:54;;;;;;;13.60;3.50;;;;;;;8.32;100.00;100723.69;5027082;28;20104;-80
2023/12/23 05:35:19;;;;;;;11.63;3.15;;;;;;;8.33;100.00;100725.38;5040463;28;20134;-81
2023/12/23 05:37:44;;;;;;;15.13;4.00;;;;;;;8.34;100.00;100721.84;5043681;28;20024;-81
2023/12/23 05:40:10;;;;;;;13.32;3.40;;;;;;;8.35;100.00;100711.25;5046065;28;20024;-81
2023/12/23 05:42:36;;;;;;;14.35;3.10;;;;;;;8.35;100.00;100699.94;5038577;28;20077;-81
2023/12/23 05:45:01;;;;;;;14.40;3.10;;;;;;;8.38;100.00;100707.59;5027594;28;20095;-81
2023/12/23 05:47:29;;;;;;;13.95;3.58;;;;;;;8.37;100.00;100719.84;5032841;28;20040;-81
2023/12/23 05:49:54;;;;;;;14.32;3.22;;;;;;;8.39;100.00;100710.09;5041774;28;20550;-81
2023/12/23 05:52:20;;;;;;;13.35;2.80;;;;;;;8.42;100.00;100709.09;5046283;28;20035;-81
2023/12/23 05:54:45;;;;;;;13.85;3.15;;;;;;;8.46;100.00;100723.66;5026962;28;20516;-81
2023/12/23 05:57:11;;;;;;;11.60;3.10;;;;;;;8.48;100.00;100730.50;5042622;28;20096;-81
2023/12/23 05:59:36;;;;;;;17.63;4.05;;;;;;;8.47;100.00;100727.97;5046526;28;20036;-81
2023/12/23 06:02:01;;;;;;;11.05;3.25;;;;;;;8.45;100.00;100725.47;5029286;28;20109;-81
2023/12/23 06:04:30;;;;;;;13.75;3.65;;;;;;;8.47;100.00;100727.97;5028195;28;20025;-82
2023/12/23 06:06:56;;;;;;;15.30;3.65;;;;;;;8.46;100.00;100723.66;5031941;28;20604;-83
2023/12/23 06:09:21;;;;;;;14.73;3.28;;;;;;;8.50;100.00;100727.75;5030768;28;20029;-83
2023/12/23 06:11:47;;;;;;;14.48;3.75;;;;;;;8.48;100.00;100720.00;5045849;28;20024;-82
2023/12/23 06:14:12;;;;;;;14.00;3.95;;;;;;;8.50;100.00;100698.91;5040319;28;20398;-82
2023/12/23 06:16:41;;;;;;;13.80;3.60;;;;;;;8.48;100.00;100703.44;5046899;28;20033;-82
2023/12/23 06:19:07;;;;;;;13.88;3.45;;;;;;;8.49;100.00;100710.34;5048187;28;20029;-82
2023/12/23 06:21:32;;;;;;;12.52;2.90;;;;;;;8.52;100.00;100704.06;5046494;28;20028;-83
2023/12/23 06:23:59;;;;;;;15.13;3.45;;;;;;;8.52;100.00;100717.19;5046277;28;20024;-83
2023/12/23 06:26:25;;;;;;;11.30;3.30;;;;;;;8.53;100.00;100700.50;5046247;28;20112;-82
2023/12/23 06:28:50;;;;;;;15.98;3.55;;;;;;;8.55;100.00;100709.94;5046046;28;20413;-83
2023/12/23 06:31:19;;;;;;;12.10;3.20;;;;;;;8.55;100.00;100709.94;5037103;28;20148;-83
2023/12/23 06:33:45;;;;;;;12.82;3.60;;;;;;;8.56;100.00;100703.75;5028047;28;20128;-83
2023/12/23 06:36:10;;;;;;;13.00;3.63;;;;;;;8.56;100.00;100709.00;5052791;28;20116;-82
2023/12/23 06:38:36;;;;;;;12.95;3.70;;;;;;;8.55;100.00;100683.72;5047920;28;20067;-82
2023/12/23 06:41:03;;;;;;;12.80;3.40;;;;;;;8.55;100.00;100723.03;5046099;28;20039;-82
2023/12/23 06:43:29;;;;;;;14.40;3.63;;;;;;;8.55;100.00;100716.97;5045625;28;20473;-83
2023/12/23 06:45:54;;;;;;;13.77;3.58;;;;;;;8.54;100.00;100717.91;5047937;28;20116;-82
2023/12/23 06:48:19;;;;;;;10.07;3.33;;;;;;;8.55;100.00;100720.44;5039808;28;20489;-83
2023/12/23 06:50:45;;;;;;;14.65;3.50;;;;;;;8.57;100.00;100718.53;5030387;28;20036;-82
2023/12/23 06:53:10;;;;;;;16.70;3.45;;;;;;;8.57;100.00;100715.91;5047520;28;20036;-82
2023/12/23 06:55:36;;;;;;;16.95;3.70;;;;;;;8.57;100.00;100709.84;5046188;28;20059;-82
2023/12/23 06:58:01;;;;;;;16.30;3.28;;;;;;;8.59;100.00;100706.16;5048321;28;20029;-81
2023/12/23 07:00:26;;;;;;;11.57;3.10;;;;;;;8.60;100.00;100712.25;5045721;28;20097;-81
2023/12/23 07:02:52;;;;;;;19.70;4.63;;;;;;;8.58;100.00;100707.09;5050257;28;20025;-81
2023/12/23 07:05:18;;;;;;;15.15;3.60;;;;;;;8.60;100.00;100710.47;5045805;28;20127;-81
2023/12/23 07:07:43;;;;;;;16.00;3.67;;;;;;;8.61;100.00;100696.41;5043926;28;20021;-80
2023/12/23 07:10:10;;;;;;;14.68;3.47;;;;;;;8.63;100.00;100706.78;5051126;28;20488;-82
2023/12/23 07:12:36;;;;;;;14.88;3.70;;;;;;;8.62;100.00;100698.09;5047333;28;20536;-81
2023/12/23 07:15:03;;;;;;;15.57;3.85;;;;;;;8.64;100.00;100705.84;5032355;28;20053;-81
2023/12/23 07:17:28;;;;;;;15.40;3.85;;;;;;;8.64;100.00;100690.09;5033883;28;20390;-81
2023/12/23 07:19:53;;;;;;;15.85;3.40;;;;;;;8.66;100.00;100704.78;5050647;28;20024;-81
2023/12/23 07:22:19;;;;;;;12.85;3.30;;;;;;;8.69;100.00;100693.25;5050619;28;20029;-81
2023/12/23 07:24:44;;;;;;;13.55;3.75;;;;;;;8.69;100.00;100701.97;5047080;28;20052;-81
2023/12/23 07:27:09;;;;;;;15.82;3.42;;;;;;;8.70;100.00;100716.75;5035372;28;20363;-81
2023/12/23 07:29:38;;;;;;;14.13;3.30;;;;;;;8.70;100.00;100719.38;5046789;28;20044;-81
2023/12/23 07:32:04;;;;;;;12.40;3.35;;;;;;;8.74;100.00;100728.72;5028870;28;20029;-81
2023/12/23 07:34:29;;;;;;;14.15;3.83;;;;;;;8.73;100.00;100724.41;5048739;28;20049;-81
2023/12/23 07:36:55;;;;;;;14.13;3.33;;;;;;;8.75;100.00;100733.00;5038151;28;20021;-81
2023/12/23 07:39:20;;;;;;;12.63;3.05;;;;;;;8.76;100.00;100749.59;5047603;28;20055;-81
2023/12/23 07:41:45;;;;;;;15.15;3.50;;;;;;;8.79;100.00;100737.09;5050582;28;20021;-81
2023/12/23 07:44:11;;;;;;;12.63;3.15;;;;;;;8.81;100.00;100728.31;5039994;28;20036;-81
2023/12/23 07:46:36;;;;;;;13.95;3.65;;;;;;;8.83;100.00;100729.06;5045602;28;20032;-81
2023/12/23 07:49:01;;;;;;;14.93;2.97;;;;;;;8.85;100.00;100722.75;5044041;28;20082;-82
2023/12/23 07:51:27;;;;;;;17.50;3.33;;;;;;;8.88;100.00;100719.06;5048183;28;20431;-82
2023/12/23 07:53:52;;;;;;;14.60;3.28;;;;;;;8.88;100.00;100708.59;5047351;28;20527;-81
2023/12/23 07:56:18;;;;;;;11.02;3.13;;;;;;;8.91;100.00;100711.00;5046935;28;20033;-82
2023/12/23 07:58:43;;;;;;;14.73;3.60;;;;;;;8.92;100.00;100705.63;5049748;28;20025;-81
2023/12/23 08:01:09;;;;;;;10.38;2.80;;;;;;;8.94;100.00;100713.41;5047984;28;20158;-81
2023/12/23 08:03:34;;;;;;;12.95;3.25;;;;;;;8.94;100.00;100710.78;5047770;28;20066;-82
2023/12/23 08:05:59;;;;;;;14.15;3.20;;;;;;;8.97;100.00;100721.06;5046982;28;20024;-82
2023/12/23 08:08:25;;;;;;;9.43;2.83;;;;;;;8.98;100.00;100722.75;5043094;28;20112;-82
2023/12/23 08:10:52;;;;;;;14.55;3.03;;;;;;;8.98;100.00;100712.25;5046315;28;20684;-82
2023/12/23 08:13:18;;;;;;;12.48;2.58;;;;;;;8.97;100.00;100715.81;5048724;28;20203;-82
2023/12/23 08:15:44;;;;;;;12.13;2.55;;;;;;;9.00;100.00;100720.84;5047964;28;20056;-82
2023/12/23 08:18:09;;;;;;;12.90;3.00;;;;;;;9.03;100.00;100728.50;5048497;28;20447;-81
2023/12/23 08:20:34;;;;;;;9.77;2.63;;;;;;;9.03;100.00;100731.13;5048347;28;20461;-81
2023/12/23 08:23:01;;;;;;;11.52;2.60;;;;;;;9.06;100.00;100733.53;5048564;28;20029;-82
2023/12/23 08:25:26;;;;;;;8.68;2.30;;;;;;;9.05;100.00;100734.47;5047402;28;20116;-82
2023/12/23 08:27:51;;;;;;;11.13;2.70;;;;;;;9.11;100.00;100729.63;5047018;28;20115;-82
2023/12/23 08:30:17;;;;;;;8.93;2.58;;;;;;;9.16;100.00;100739.81;5047198;28;20032;-81
2023/12/23 08:32:43;;;;;;;7.72;2.50;;;;;;;9.15;100.00;100743.38;5048472;28;20543;-81
2023/12/23 08:35:08;;;;;;;12.55;2.65;;;;;;;9.15;100.00;100735.50;5048406;28;20560;-81
2023/12/23 08:37:34;;;;;;;12.35;3.20;;;;;;;9.15;100.00;100738.13;5047176;28;20025;-81
2023/12/23 08:39:59;;;;;;;10.48;2.58;;;;;;;9.16;100.00;100736.34;5047160;28;20025;-81
2023/12/23 08:42:24;;;;;;;11.57;3.15;;;;;;;9.17;100.00;100749.38;5048483;28;20025;-81
2023/12/23 08:44:50;;;;;;;17.23;3.22;;;;;;;9.19;100.00;100749.25;5047195;28;20024;-81
2023/12/23 08:47:18;;;;;;;11.13;2.88;;;;;;;9.18;100.00;100748.41;5048139;28;20507;-81
2023/12/23 08:49:43;;;;;;;13.23;2.80;;;;;;;9.16;100.00;100747.69;5047984;28;20059;-81
2023/12/23 08:52:09;;;;;;;12.15;2.83;;;;;;;9.17;100.00;100744.13;5046585;28;20114;-81
2023/12/23 08:54:34;;;;;;;8.98;2.30;;;;;;;9.18;100.00;100740.56;5046467;28;20032;-81
2023/12/23 08:56:59;;;;;;;11.55;2.47;;;;;;;9.17;100.00;100757.25;5047038;28;20018;-81
2023/12/23 08:59:25;;;;;;;11.55;2.80;;;;;;;9.15;100.00;100747.78;5048476;28;20443;-82
2023/12/23 09:01:50;;;;;;;12.13;3.08;;;;;;;9.11;100.00;100763.75;5046912;28;20469;-81
2023/12/23 09:04:18;;;;;;;10.50;2.47;;;;;;;9.06;100.00;100758.00;5045361;28;20025;-82
2023/12/23 09:06:43;;;;;;;11.48;2.67;;;;;;;9.03;100.00;100757.38;5047297;28;20026;-81
2023/12/23 09:09:08;;;;;;;9.75;2.38;;;;;;;9.00;100.00;100781.19;5046358;28;20036;-81
2023/12/23 09:11:40;;;;;;;14.60;2.97;;;;;;;8.96;100.00;100793.69;5045930;28;20064;-79
2023/12/23 09:14:06;;;;;;;11.90;2.90;;;;;;;8.92;100.00;100791.38;5046121;28;20035;-80
2023/12/23 09:16:31;;;;;;;8.02;2.38;;;;;;;8.90;100.00;100795.91;5046147;28;20025;-80
2023/12/23 09:18:56;;;;;;;10.70;2.67;;;;;;;8.88;100.00;100789.91;5046591;28;20025;-80
2023/12/23 09:21:22;;;;;;;10.65;2.47;;;;;;;8.87;100.00;100790.88;5042522;28;20029;-80
2023/12/23 09:23:47;;;;;;;11.82;2.90;;;;;;;8.85;100.00;100795.38;5043592;28;20059;-80
2023/12/23 09:26:13;;;;;;;10.75;2.47;;;;;;;8.83;100.00;100795.47;5045134;28;20481;-80
2023/12/23 09:28:39;;;;;;;10.45;2.50;;;;;;;8.82;100.00;100799.03;5046333;28;20025;-80
2023/12/23 09:31:04;;;;;;;12.70;2.50;;;;;;;8.83;100.00;100787.59;5043923;28;20021;-80
2023/12/23 09:33:30;;;;;;;10.65;2.15;;;;;;;8.84;100.00;100793.69;5046687;28;20044;-79
2023/12/23 09:35:55;;;;;;;11.80;2.80;;;;;;;8.86;100.00;100778.69;5048190;28;20051;-80
2023/12/23 09:38:21;;;;;;;10.60;2.40;;;;;;;8.85;100.00;100769.97;5042985;28;20037;-80
2023/12/23 09:40:46;;;;;;;11.43;2.75;;;;;;;8.88;100.00;100774.19;5048611;28;20024;-80
2023/12/23 09:43:13;;;;;;;11.35;2.63;;;;;;;8.90;100.00;100796.75;5046906;28;20400;-80
2023/12/23 09:45:41;;;;;;;10.95;3.05;;;;;;;8.93;100.00;100793.06;5045544;28;20033;-80
2023/12/23 09:48:07;;;;;;;12.45;2.80;;;;;;;8.99;100.00;100803.13;5042936;28;20107;-80
2023/12/23 09:50:32;;;;;;;12.77;2.55;;;;;;;9.02;100.00;100792.44;5043382;28;21130;-79
2023/12/23 09:53:00;;;;;;;10.35;2.60;;;;;;;9.02;100.00;100793.28;5044487;28;20021;-79
2023/12/23 09:55:26;;;;;;;12.07;2.88;;;;;;;9.06;100.00;100801.78;5045399;28;20496;-79
2023/12/23 09:57:51;;;;;;;12.57;3.20;;;;;;;9.09;100.00;100789.28;5040449;28;20025;-80
2023/12/23 10:00:17;;;;;;;13.20;3.00;;;;;;;9.14;100.00;100790.75;5040904;28;20029;-78
2023/12/23 10:02:42;;;;;;;11.43;2.50;;;;;;;9.17;100.00;100801.03;5046261;28;20053;-79
2023/12/23 10:05:08;;;;;;;9.43;2.30;;;;;;;9.16;100.00;100815.94;5043848;28;20107;-79
2023/12/23 10:07:33;;;;;;;8.65;2.20;;;;;;;9.20;100.00;100812.16;5039916;28;20472;-79
2023/12/23 10:09:59;;;;;;;9.15;2.47;;;;;;;9.21;100.00;100819.13;5044490;28;20020;-79
2023/12/23 10:12:24;;;;;;;11.63;2.90;;;;;;;9.22;100.00;100815.53;5045418;28;20029;-80
2023/12/23 10:14:50;;;;;;;17.10;2.90;;;;;;;9.23;100.00;100821.63;5045257;28;20024;-80
2023/12/23 10:17:18;;;;;;;12.20;2.60;;;;;;;9.25;100.00;100814.50;5046680;28;20440;-80
2023/12/23 10:19:48;;;;;;;12.00;2.42;;;;;;;9.25;100.00;100801.38;5045575;28;20029;-80
2023/12/23 10:22:16;;;;;;;12.85;2.80;;;;;;;9.25;100.00;100802.22;5043949;28;20025;-81
2023/12/23 10:24:41;;;;;;;13.32;2.83;;;;;;;9.28;100.00;100794.13;5044018;28;20025;-81
2023/12/23 10:27:07;;;;;;;13.35;2.83;;;;;;;9.32;100.00;100800.81;5046677;28;20051;-80
2023/12/23 10:29:35;;;;;;;9.93;2.28;;;;;;;9.37;100.00;100808.38;5040981;28;20025;-80
2023/12/23 10:32:04;;;;;;;10.07;2.40;;;;;;;9.41;100.00;100800.19;5050926;28;20024;-80
2023/12/23 10:34:42;;;;;;;11.43;2.40;;;;;;;9.46;100.00;100801.66;5049928;28;20083;-80
2023/12/23 10:37:08;;;;;;;10.77;2.35;;;;;;;9.51;100.00;100799.53;5050645;28;20044;-80
2023/12/23 10:39:38;;;;;;;8.82;2.38;;;;;;;9.53;100.00;100793.22;5049687;28;20515;-79
2023/12/23 10:42:10;;;;;;;9.48;2.17;;;;;;;9.58;100.00;100803.41;5051810;28;20091;-79
2023/12/23 10:44:37;;;;;;;10.55;2.58;;;;;;;9.61;100.00;100811.94;5054165;28;20364;-80
2023/12/23 10:47:04;;;;;;;8.00;2.28;;;;;;;9.64;100.00;100821.38;5052454;28;20033;-80
2023/12/23 10:49:30;;;;;;;11.57;2.53;;;;;;;9.70;100.00;100813.06;5051470;28;20055;-80
2023/12/23 10:51:59;;;;;;;12.73;2.60;;;;;;;9.74;100.00;100809.28;5052868;28;20469;-80
2023/12/23 10:54:27;;;;;;;10.00;2.58;;;;;;;9.75;100.00;100797.81;5053067;28;20029;-80
2023/12/23 10:56:55;;;;;;;8.30;2.20;;;;;;;9.76;100.00;100799.50;5051799;28;20021;-79
2023/12/23 10:59:21;;;;;;;8.38;2.10;;;;;;;9.79;100.00;100804.53;5047315;28;20049;-79
2023/12/23 11:01:46;;;;;;;10.38;2.53;;;;;;;9.82;100.00;100812.19;5048083;28;20587;-80
2023/12/23 11:04:12;;;;;;;9.25;2.40;;;;;;;9.83;100.00;100813.88;5050528;28;20115;-79
2023/12/23 11:06:41;;;;;;;12.07;3.10;;;;;;;9.84;100.00;100799.78;5049268;28;20033;-80
2023/12/23 11:09:08;;;;;;;10.60;2.30;;;;;;;9.85;100.00;100793.56;5049409;28;20470;-79
2023/12/23 11:11:34;;;;;;;12.35;2.25;;;;;;;9.90;100.00;100783.56;5051034;28;20032;-80